WetterOnline ( http://www.wetteronline.de )

Wetter aktuell Hildesheim

Aktuelles Wetter: Alfeld (148m)

6-stündlich | Neueste Meldungen
Ortszeit Temperatur Wetter
Di, 18.12. 13:00 5.1° C leicht bewölkt
Di, 18.12. 7:00 4.2° C bewölkt
Di, 18.12. 1:00 4.8° C leichter Regen
Mo, 17.12. 19:00 4.3° C bewölkt
Mo, 17.12. 13:00 3.7° C bedeckt
Mo, 17.12. 7:00 0.9° C bedeckt
Mo, 17.12. 1:00 0.3° C bedeckt
So, 16.12. 19:00 -0.9° C bedeckt
Ortszeit Temperatur Wetter
Di, 18.12. 14:30 5.4° C bedeckt
Di, 18.12. 14:20 5.4° C bedeckt
Di, 18.12. 14:10 5.4° C bedeckt
Di, 18.12. 14:00 5.3° C bedeckt
Di, 18.12. 13:50 5.3° C bedeckt
Di, 18.12. 13:40 5.4° C bedeckt
Di, 18.12. 13:30 5.3° C bewölkt
Di, 18.12. 13:00 5.1° C leicht bewölkt
Di, 18.12. 12:30 4.9° C bewölkt
Di, 18.12. 12:00 4.8° C bewölkt
Di, 18.12. 11:30 4.7° C bewölkt
Ortszeit Relative Feuchte Sichtweite
Di, 18.12. 13:00 81% 40 km
Di, 18.12. 7:00 89% 15 km
Di, 18.12. 1:00 90% 9 km
Mo, 17.12. 19:00 87% 22 km
Mo, 17.12. 13:00 87% 17 km
Mo, 17.12. 7:00 93% 5.0 km
Mo, 17.12. 1:00 90% 5.0 km
So, 16.12. 19:00 84% 9 km
Ortszeit Relative Feuchte Sichtweite
Di, 18.12. 14:30 78% 45 km
Di, 18.12. 14:20 78% -
Di, 18.12. 14:10 79% -
Di, 18.12. 14:00 80% 50 km
Di, 18.12. 13:50 80% -
Di, 18.12. 13:40 81% -
Di, 18.12. 13:30 80% 45 km
Di, 18.12. 13:00 81% 40 km
Di, 18.12. 12:30 83% 30 km
Di, 18.12. 12:00 84% 30 km
Di, 18.12. 11:30 84% -
Ortszeit Niederschlagsmenge Niederschlagsart
Di, 18.12. 13:00 0.1 l/m2 in 6 Std. -
Di, 18.12. 7:00 0.3 l/m2 in 12 Std. Regen
Di, 18.12. 1:00 0.3 l/m2 in 6 Std. Regen
Mo, 17.12. 19:00 0.1 l/m2 in 12 Std. Regen
Mo, 17.12. 13:00 0.0 l/m2 in 6 Std. -
Mo, 17.12. 7:00 0.0 l/m2 in 12 Std. -
Mo, 17.12. 1:00 0.0 l/m2 in 6 Std. -
So, 16.12. 19:00 0.1 l/m2 in 12 Std. Schnee, Sprühregen
Ortszeit Niederschlagsmenge Niederschlagsart
Di, 18.12. 14:30 0.0 l/m2 in 1 Std. -
Di, 18.12. 14:20 keine Meldung -
Di, 18.12. 14:10 keine Meldung -
Di, 18.12. 14:00 0.0 l/m2 in 1 Std. -
Di, 18.12. 13:50 keine Meldung -
Di, 18.12. 13:40 keine Meldung -
Di, 18.12. 13:30 0.0 l/m2 in 1 Std. -
Di, 18.12. 13:00 0.0 l/m2 in 1 Std. -
Di, 18.12. 12:30 0.0 l/m2 in 1 Std. -
Di, 18.12. 12:00 0.0 l/m2 in 1 Std. -
Di, 18.12. 11:30 0.0 l/m2 in 1 Std. -
Ortszeit Stärke Spitze Richtung
km/h Bft. km/h Grad Sektor
Di, 18.12. 13:00 17 3 33 160° S
Di, 18.12. 7:00 7 2 20 150° SO
Di, 18.12. 1:00 9 2 20 160° S
Mo, 17.12. 19:00 9 2 28 160° S
Mo, 17.12. 13:00 19 3 31 140° SO
Mo, 17.12. 7:00 11 2 25 150° SO
Mo, 17.12. 1:00 11 2 18 150° SO
So, 16.12. 19:00 11 2 32 130° SO
Ortszeit Stärke Spitze Richtung
km/h Bft. km/h Grad Sektor
Di, 18.12. 14:30 18 3 29 150° SO
Di, 18.12. 14:20 18 3 - 150° SO
Di, 18.12. 14:10 18 3 - 150° SO
Di, 18.12. 14:00 14 3 29 150° SO
Di, 18.12. 13:50 14 3 - 150° SO
Di, 18.12. 13:40 14 3 - 150° SO
Di, 18.12. 13:30 14 3 25 160° S
Di, 18.12. 13:00 17 3 33 160° S
Di, 18.12. 12:30 20 4 33 150° SO
Di, 18.12. 12:00 18 3 25 150° SO
Di, 18.12. 11:30 18 3 25 150° SO
Ortszeit Untergrenze Bedeckung Gattung
total tief tief mittel hoch
Di, 18.12. 13:00 390 m 3/8 3/8 - - -
Di, 18.12. 7:00 540 m 7/8 7/8 - - -
Di, 18.12. 1:00 990 m 7/8 7/8 - - -
Mo, 17.12. 19:00 390 m 7/8 7/8 - - -
Mo, 17.12. 13:00 360 m 8/8 8/8 - - -
Mo, 17.12. 7:00 210 m 8/8 8/8 - - -
Mo, 17.12. 1:00 210 m 8/8 8/8 - - -
So, 16.12. 19:00 360 m 8/8 8/8 - - -
Ortszeit Bedeckungsgrad in Achtel und Wolkenuntergrenze
Di, 18.12. 14:30 8(510m)
Di, 18.12. 14:20 8(510m)
Di, 18.12. 14:10 8(510m)
Di, 18.12. 14:00 8(510m)
Di, 18.12. 13:50 8(510m)
Di, 18.12. 13:40 8(510m)
Di, 18.12. 13:30 7(480m)
Di, 18.12. 13:00 3(390m)
Di, 18.12. 12:30 7(420m) 7(840m)
Di, 18.12. 12:00 7(420m)
Di, 18.12. 11:30 6(420m) 7(1440m)
Ortszeit Luftdruck NN (hPa) Tendenz (hPa in 3 Std.)
Di, 18.12. 13:00 1024 - 1,9
Di, 18.12. 7:00 1026 + 0,3
Di, 18.12. 1:00 1025 + 0,6
Mo, 17.12. 19:00 1022 + 2,0
Mo, 17.12. 13:00 1019 + 0,2
Mo, 17.12. 7:00 1018 + 1,6
Mo, 17.12. 1:00 1016 + 1,2
So, 16.12. 19:00 1014 + 1,2
Ortszeit Luftdruck NN (hPa) Tendenz (hPa in 3 Std.)
Di, 18.12. 14:30 1024 - 1,7
Di, 18.12. 14:20 1024 keine Meldung
Di, 18.12. 14:10 1024 keine Meldung
Di, 18.12. 14:00 1024 - 1,9
Di, 18.12. 13:50 1024 keine Meldung
Di, 18.12. 13:40 1024 keine Meldung
Di, 18.12. 13:30 1024 - 2,1
Di, 18.12. 13:00 1024 - 1,9
Di, 18.12. 12:30 1025 - 1,3
Di, 18.12. 12:00 1025 - 0,6
Di, 18.12. 11:30 1025 - 0,3
Ortszeit Schneehöhe (cm)
Di, 18.12. 13:00 0
Di, 18.12. 7:00 0
Di, 18.12. 1:00 0
Mo, 17.12. 19:00 0
Mo, 17.12. 13:00 0
Mo, 17.12. 7:00 0
Mo, 17.12. 1:00 -
So, 16.12. 19:00 1
Ortszeit Schneehöhe (cm)
Di, 18.12. 14:30 0
Di, 18.12. 14:20 0
Di, 18.12. 14:10 0
Di, 18.12. 14:00 0
Di, 18.12. 13:50 0
Di, 18.12. 13:40 0
Di, 18.12. 13:30 0
Di, 18.12. 13:00 0
Di, 18.12. 12:30 0
Di, 18.12. 12:00 0
Di, 18.12. 11:30 0
Link zu dieser Seite / Seite empfehlen

Das Wetter in ...